Aérodrome :
LOGIN :

S'inscrire | Disclaimer

   EN    FR    IT 

 










Légende :    VFR   VFR Marginal   IFR   IFR Intensif   IFR Très Intensif
Visi : 
Plafond : 
>= 8 km
>= 3000ft
5 à 8 km
1000 à 3000 ft
1500m à 5 km
500 à 1000 ft
800 à 1500m
200 à 500 ft
< 800m
< 200 ft
Symboles :   Orages  Brouillard  Fortes neiges  Fortes précipitations  Vent > 20 kt
SIGMETs :   Divers  Orages  Givrage  Turbulence  Onde Orograph.  Cendres Volcan.






- Altitude de l'aérodrome : 124 ft
- Code IATA : NHT


EGWU - RAF Northolt

DERNIER METAR :
  • 131750Z 13007KT CAVOK 05/03 Q0994 BECMG BKN024

METARs EXPIRÉS :
  • 131723Z 13007KT CAVOK 06/03 Q0994 NOSIG RMK BLU BLU
  • 131650Z 14005KT CAVOK 06/03 Q0995 NOSIG RMK BLU BLU
  • 131619Z 15005KT CAVOK 07/02 Q0996 NOSIG RMK BLU BLU
  • 131550Z 18003KT 9999 FEW025 BKN120 08/02 Q0996 NOSIG RMK BLU BLU

TAF TAF EGWU
Valide du 13 à 18h jusqu'au 14 à 12h UTC


131648Z 1318/1412 19005KT 9999 FEW020
BECMG 1319/1322 BKN018
TEMPO 1320/1409 7000 RA
BECMG 1322/1401 BKN010
PROB30
TEMPO 1322/1404 4000 +RA
PROB30
TEMPO 1403/1409 3000 RADZ SCT006



MET'MAP, la Météo Aéronautique d'un coup d'oeil ! - Copyright ORBIFLY Décembre 2007 - Disclaimer

ORBIFLY MET'MAP TEAM :

Programmation & Développement : Alexandra Zaïnal
Conception & Développement : Baudouin d'Aumeries
Co-Programmation & Développement : Marc-Olivier Méhu
Soutien technique & logistique : Manuel Goepfert

Contact : metmap@orbifly.com




SOURCES & CREDITS :

   NOAA